sensor_id;sensor_type;location;lat;lon;timestamp;P1;durP1;ratioP1;P2;durP2;ratioP2
14052;SDS011;7101;51.600;7.310;2022-07-23T00:01:18;7.35;;;4.57;;
14052;SDS011;7101;51.600;7.310;2022-07-23T00:03:47;7.75;;;5.40;;
14052;SDS011;7101;51.600;7.310;2022-07-23T00:06:14;14.90;;;5.60;;
14052;SDS011;7101;51.600;7.310;2022-07-23T00:08:41;10.50;;;5.00;;
14052;SDS011;7101;51.600;7.310;2022-07-23T00:11:08;8.65;;;5.32;;
14052;SDS011;7101;51.600;7.310;2022-07-23T00:13:35;9.35;;;5.03;;
14052;SDS011;7101;51.600;7.310;2022-07-23T00:16:02;15.57;;;5.80;;
14052;SDS011;7101;51.600;7.310;2022-07-23T00:18:29;8.98;;;5.80;;
14052;SDS011;7101;51.600;7.310;2022-07-23T00:20:57;10.25;;;5.35;;
14052;SDS011;7101;51.600;7.310;2022-07-23T00:23:24;11.63;;;5.38;;
14052;SDS011;7101;51.600;7.310;2022-07-23T00:25:51;10.35;;;5.78;;
14052;SDS011;7101;51.600;7.310;2022-07-23T00:28:18;7.35;;;5.78;;
14052;SDS011;7101;51.600;7.310;2022-07-23T00:30:46;10.00;;;5.97;;
14052;SDS011;7101;51.600;7.310;2022-07-23T00:33:12;12.75;;;5.97;;
14052;SDS011;7101;51.600;7.310;2022-07-23T00:35:41;11.95;;;6.18;;
14052;SDS011;7101;51.600;7.310;2022-07-23T00:38:10;8.40;;;6.10;;
14052;SDS011;7101;51.600;7.310;2022-07-23T00:40:37;13.55;;;6.43;;
14052;SDS011;7101;51.600;7.310;2022-07-23T00:43:04;7.90;;;6.28;;
14052;SDS011;7101;51.600;7.310;2022-07-23T00:45:31;8.80;;;6.68;;
14052;SDS011;7101;51.600;7.310;2022-07-23T00:47:59;8.98;;;6.18;;
14052;SDS011;7101;51.600;7.310;2022-07-23T00:50:26;8.25;;;6.10;;
14052;SDS011;7101;51.600;7.310;2022-07-23T00:52:54;14.57;;;6.53;;
14052;SDS011;7101;51.600;7.310;2022-07-23T00:55:23;9.63;;;6.28;;
14052;SDS011;7101;51.600;7.310;2022-07-23T00:57:50;9.90;;;6.03;;
14052;SDS011;7101;51.600;7.310;2022-07-23T01:00:19;9.30;;;6.50;;
14052;SDS011;7101;51.600;7.310;2022-07-23T01:02:45;13.02;;;6.72;;
14052;SDS011;7101;51.600;7.310;2022-07-23T01:05:12;8.02;;;6.35;;
14052;SDS011;7101;51.600;7.310;2022-07-23T01:07:39;11.05;;;6.70;;
14052;SDS011;7101;51.600;7.310;2022-07-23T01:10:07;9.52;;;6.90;;
14052;SDS011;7101;51.600;7.310;2022-07-23T01:12:49;9.32;;;6.32;;
14052;SDS011;7101;51.600;7.310;2022-07-23T01:15:16;7.43;;;6.47;;
14052;SDS011;7101;51.600;7.310;2022-07-23T01:17:42;12.65;;;6.97;;
14052;SDS011;7101;51.600;7.310;2022-07-23T01:20:09;9.90;;;6.50;;
14052;SDS011;7101;51.600;7.310;2022-07-23T01:22:38;9.43;;;7.15;;
14052;SDS011;7101;51.600;7.310;2022-07-23T01:25:05;9.77;;;6.82;;
14052;SDS011;7101;51.600;7.310;2022-07-23T01:27:32;10.75;;;7.20;;
14052;SDS011;7101;51.600;7.310;2022-07-23T01:30:00;10.13;;;7.20;;
14052;SDS011;7101;51.600;7.310;2022-07-23T01:32:27;9.40;;;7.00;;
14052;SDS011;7101;51.600;7.310;2022-07-23T01:34:54;9.88;;;6.88;;
14052;SDS011;7101;51.600;7.310;2022-07-23T01:37:21;8.73;;;6.85;;
14052;SDS011;7101;51.600;7.310;2022-07-23T01:39:49;11.60;;;7.57;;
14052;SDS011;7101;51.600;7.310;2022-07-23T01:42:16;10.02;;;6.85;;
14052;SDS011;7101;51.600;7.310;2022-07-23T01:44:42;10.95;;;7.32;;
14052;SDS011;7101;51.600;7.310;2022-07-23T01:47:09;10.77;;;6.75;;
14052;SDS011;7101;51.600;7.310;2022-07-23T01:49:36;9.38;;;6.97;;
14052;SDS011;7101;51.600;7.310;2022-07-23T01:52:03;9.35;;;7.05;;
14052;SDS011;7101;51.600;7.310;2022-07-23T01:54:34;9.35;;;7.13;;
14052;SDS011;7101;51.600;7.310;2022-07-23T01:57:02;10.40;;;6.93;;
14052;SDS011;7101;51.600;7.310;2022-07-23T01:59:29;15.48;;;7.28;;
14052;SDS011;7101;51.600;7.310;2022-07-23T02:01:56;9.60;;;7.07;;
14052;SDS011;7101;51.600;7.310;2022-07-23T02:04:24;10.93;;;7.85;;
14052;SDS011;7101;51.600;7.310;2022-07-23T02:06:51;10.30;;;7.43;;
14052;SDS011;7101;51.600;7.310;2022-07-23T02:09:19;9.32;;;7.05;;
14052;SDS011;7101;51.600;7.310;2022-07-23T02:11:45;9.77;;;8.00;;
14052;SDS011;7101;51.600;7.310;2022-07-23T02:14:14;9.95;;;7.32;;
14052;SDS011;7101;51.600;7.310;2022-07-23T02:16:41;12.32;;;8.07;;
14052;SDS011;7101;51.600;7.310;2022-07-23T02:19:07;11.65;;;7.20;;
14052;SDS011;7101;51.600;7.310;2022-07-23T02:21:34;10.80;;;7.60;;
14052;SDS011;7101;51.600;7.310;2022-07-23T02:24:01;10.95;;;7.25;;
14052;SDS011;7101;51.600;7.310;2022-07-23T02:26:28;8.40;;;7.50;;
14052;SDS011;7101;51.600;7.310;2022-07-23T02:28:57;11.00;;;7.20;;
14052;SDS011;7101;51.600;7.310;2022-07-23T02:31:25;8.05;;;7.25;;
14052;SDS011;7101;51.600;7.310;2022-07-23T02:33:52;10.02;;;7.75;;
14052;SDS011;7101;51.600;7.310;2022-07-23T02:36:19;10.40;;;7.95;;
14052;SDS011;7101;51.600;7.310;2022-07-23T02:38:45;12.10;;;7.88;;
14052;SDS011;7101;51.600;7.310;2022-07-23T02:41:12;9.30;;;8.13;;
14052;SDS011;7101;51.600;7.310;2022-07-23T02:43:39;10.93;;;7.70;;
14052;SDS011;7101;51.600;7.310;2022-07-23T02:46:06;13.55;;;9.00;;
14052;SDS011;7101;51.600;7.310;2022-07-23T02:48:35;13.23;;;8.43;;
14052;SDS011;7101;51.600;7.310;2022-07-23T02:51:01;10.32;;;8.20;;
14052;SDS011;7101;51.600;7.310;2022-07-23T02:53:28;13.40;;;8.25;;
14052;SDS011;7101;51.600;7.310;2022-07-23T02:55:55;9.70;;;8.52;;
14052;SDS011;7101;51.600;7.310;2022-07-23T02:58:22;10.00;;;8.52;;
14052;SDS011;7101;51.600;7.310;2022-07-23T03:00:50;14.10;;;8.30;;
14052;SDS011;7101;51.600;7.310;2022-07-23T03:03:16;12.07;;;8.40;;
14052;SDS011;7101;51.600;7.310;2022-07-23T03:05:44;8.75;;;7.85;;
14052;SDS011;7101;51.600;7.310;2022-07-23T03:08:11;10.98;;;8.13;;
14052;SDS011;7101;51.600;7.310;2022-07-23T03:10:38;11.40;;;8.20;;
14052;SDS011;7101;51.600;7.310;2022-07-23T03:13:05;11.52;;;8.57;;
14052;SDS011;7101;51.600;7.310;2022-07-23T03:15:32;9.15;;;8.25;;
14052;SDS011;7101;51.600;7.310;2022-07-23T03:17:58;12.07;;;9.00;;
14052;SDS011;7101;51.600;7.310;2022-07-23T03:20:25;11.18;;;8.68;;
14052;SDS011;7101;51.600;7.310;2022-07-23T03:22:53;14.50;;;8.93;;
14052;SDS011;7101;51.600;7.310;2022-07-23T03:25:20;12.60;;;8.70;;
14052;SDS011;7101;51.600;7.310;2022-07-23T03:27:47;11.25;;;8.60;;
14052;SDS011;7101;51.600;7.310;2022-07-23T03:30:14;14.07;;;8.32;;
14052;SDS011;7101;51.600;7.310;2022-07-23T03:32:40;10.68;;;8.38;;
14052;SDS011;7101;51.600;7.310;2022-07-23T03:35:07;8.68;;;7.78;;
14052;SDS011;7101;51.600;7.310;2022-07-23T03:37:34;15.45;;;8.40;;
14052;SDS011;7101;51.600;7.310;2022-07-23T03:40:04;11.82;;;8.40;;
14052;SDS011;7101;51.600;7.310;2022-07-23T03:42:31;11.93;;;8.30;;
14052;SDS011;7101;51.600;7.310;2022-07-23T03:44:58;10.60;;;8.40;;
14052;SDS011;7101;51.600;7.310;2022-07-23T03:47:25;10.63;;;7.97;;
14052;SDS011;7101;51.600;7.310;2022-07-23T03:49:52;11.43;;;8.48;;
14052;SDS011;7101;51.600;7.310;2022-07-23T03:52:19;8.70;;;7.60;;
14052;SDS011;7101;51.600;7.310;2022-07-23T03:54:46;10.35;;;7.82;;
14052;SDS011;7101;51.600;7.310;2022-07-23T03:57:14;11.73;;;8.43;;
14052;SDS011;7101;51.600;7.310;2022-07-23T03:59:41;15.00;;;8.82;;
14052;SDS011;7101;51.600;7.310;2022-07-23T04:02:08;9.18;;;8.27;;
14052;SDS011;7101;51.600;7.310;2022-07-23T04:04:34;11.70;;;8.40;;
14052;SDS011;7101;51.600;7.310;2022-07-23T04:07:01;8.95;;;7.40;;
14052;SDS011;7101;51.600;7.310;2022-07-23T04:09:28;12.90;;;8.23;;
14052;SDS011;7101;51.600;7.310;2022-07-23T04:11:55;9.80;;;7.90;;
14052;SDS011;7101;51.600;7.310;2022-07-23T04:14:23;10.95;;;7.22;;
14052;SDS011;7101;51.600;7.310;2022-07-23T04:16:50;11.57;;;8.15;;
14052;SDS011;7101;51.600;7.310;2022-07-23T04:19:16;14.15;;;8.20;;
14052;SDS011;7101;51.600;7.310;2022-07-23T04:21:43;13.60;;;8.68;;
14052;SDS011;7101;51.600;7.310;2022-07-23T04:24:10;9.27;;;7.63;;
14052;SDS011;7101;51.600;7.310;2022-07-23T04:26:37;11.93;;;8.93;;
14052;SDS011;7101;51.600;7.310;2022-07-23T04:29:04;9.98;;;7.30;;
14052;SDS011;7101;51.600;7.310;2022-07-23T04:31:32;11.25;;;8.10;;
14052;SDS011;7101;51.600;7.310;2022-07-23T04:33:59;9.65;;;7.53;;
14052;SDS011;7101;51.600;7.310;2022-07-23T04:36:25;8.98;;;7.78;;
14052;SDS011;7101;51.600;7.310;2022-07-23T04:38:52;9.35;;;7.90;;
14052;SDS011;7101;51.600;7.310;2022-07-23T04:41:19;9.63;;;7.10;;
14052;SDS011;7101;51.600;7.310;2022-07-23T04:43:46;14.13;;;8.07;;
14052;SDS011;7101;51.600;7.310;2022-07-23T04:46:12;10.10;;;8.02;;
14052;SDS011;7101;51.600;7.310;2022-07-23T04:48:41;12.45;;;7.45;;
14052;SDS011;7101;51.600;7.310;2022-07-23T04:51:07;9.32;;;7.60;;
14052;SDS011;7101;51.600;7.310;2022-07-23T04:53:36;11.52;;;7.80;;
14052;SDS011;7101;51.600;7.310;2022-07-23T04:56:03;13.07;;;8.40;;
14052;SDS011;7101;51.600;7.310;2022-07-23T04:58:30;11.20;;;7.80;;
14052;SDS011;7101;51.600;7.310;2022-07-23T05:00:57;8.80;;;7.90;;
14052;SDS011;7101;51.600;7.310;2022-07-23T05:03:24;9.38;;;7.80;;
14052;SDS011;7101;51.600;7.310;2022-07-23T05:05:52;10.48;;;7.55;;
14052;SDS011;7101;51.600;7.310;2022-07-23T05:08:19;9.70;;;7.32;;
14052;SDS011;7101;51.600;7.310;2022-07-23T05:10:46;10.55;;;7.50;;
14052;SDS011;7101;51.600;7.310;2022-07-23T05:13:13;11.18;;;6.55;;
14052;SDS011;7101;51.600;7.310;2022-07-23T05:15:40;12.05;;;6.70;;
14052;SDS011;7101;51.600;7.310;2022-07-23T05:18:07;7.30;;;6.22;;
14052;SDS011;7101;51.600;7.310;2022-07-23T05:20:34;7.78;;;6.72;;
14052;SDS011;7101;51.600;7.310;2022-07-23T05:23:03;7.20;;;5.90;;
14052;SDS011;7101;51.600;7.310;2022-07-23T05:25:30;10.23;;;5.97;;
14052;SDS011;7101;51.600;7.310;2022-07-23T05:27:56;7.25;;;5.90;;
14052;SDS011;7101;51.600;7.310;2022-07-23T05:30:23;7.30;;;6.00;;
14052;SDS011;7101;51.600;7.310;2022-07-23T05:32:50;8.48;;;5.80;;
14052;SDS011;7101;51.600;7.310;2022-07-23T05:35:17;6.28;;;5.68;;
14052;SDS011;7101;51.600;7.310;2022-07-23T05:37:44;11.65;;;5.80;;
14052;SDS011;7101;51.600;7.310;2022-07-23T05:40:12;10.88;;;6.25;;
14052;SDS011;7101;51.600;7.310;2022-07-23T05:42:39;7.78;;;5.82;;
14052;SDS011;7101;51.600;7.310;2022-07-23T05:45:07;7.43;;;5.47;;
14052;SDS011;7101;51.600;7.310;2022-07-23T05:47:41;8.52;;;5.70;;
14052;SDS011;7101;51.600;7.310;2022-07-23T05:50:09;7.68;;;5.22;;
14052;SDS011;7101;51.600;7.310;2022-07-23T05:52:36;7.93;;;5.10;;
14052;SDS011;7101;51.600;7.310;2022-07-23T05:55:04;8.73;;;5.00;;
14052;SDS011;7101;51.600;7.310;2022-07-23T05:57:32;7.68;;;5.20;;
14052;SDS011;7101;51.600;7.310;2022-07-23T05:59:59;6.55;;;5.10;;
14052;SDS011;7101;51.600;7.310;2022-07-23T06:02:26;6.10;;;4.55;;
14052;SDS011;7101;51.600;7.310;2022-07-23T06:04:53;8.45;;;4.80;;
14052;SDS011;7101;51.600;7.310;2022-07-23T06:07:19;8.52;;;4.93;;
14052;SDS011;7101;51.600;7.310;2022-07-23T06:09:46;7.13;;;5.38;;
14052;SDS011;7101;51.600;7.310;2022-07-23T06:12:14;6.30;;;4.95;;
14052;SDS011;7101;51.600;7.310;2022-07-23T06:14:42;6.60;;;4.65;;
14052;SDS011;7101;51.600;7.310;2022-07-23T06:17:09;6.13;;;4.80;;
14052;SDS011;7101;51.600;7.310;2022-07-23T06:19:36;6.07;;;4.47;;
14052;SDS011;7101;51.600;7.310;2022-07-23T06:22:03;5.43;;;4.53;;
14052;SDS011;7101;51.600;7.310;2022-07-23T06:24:29;6.78;;;4.82;;
14052;SDS011;7101;51.600;7.310;2022-07-23T06:26:56;7.32;;;5.18;;
14052;SDS011;7101;51.600;7.310;2022-07-23T06:29:23;6.57;;;4.97;;
14052;SDS011;7101;51.600;7.310;2022-07-23T06:31:51;6.47;;;4.75;;
14052;SDS011;7101;51.600;7.310;2022-07-23T06:34:18;6.60;;;4.80;;
14052;SDS011;7101;51.600;7.310;2022-07-23T06:36:44;7.95;;;4.93;;
14052;SDS011;7101;51.600;7.310;2022-07-23T06:39:11;5.38;;;4.82;;
14052;SDS011;7101;51.600;7.310;2022-07-23T06:41:38;6.45;;;5.18;;
14052;SDS011;7101;51.600;7.310;2022-07-23T06:44:05;6.72;;;4.88;;
14052;SDS011;7101;51.600;7.310;2022-07-23T06:46:31;6.95;;;5.63;;
14052;SDS011;7101;51.600;7.310;2022-07-23T06:49:00;6.78;;;5.85;;
14052;SDS011;7101;51.600;7.310;2022-07-23T06:51:26;7.43;;;5.20;;
14052;SDS011;7101;51.600;7.310;2022-07-23T06:53:53;9.95;;;6.72;;
14052;SDS011;7101;51.600;7.310;2022-07-23T06:56:20;9.25;;;6.90;;
14052;SDS011;7101;51.600;7.310;2022-07-23T06:58:47;8.02;;;6.85;;
14052;SDS011;7101;51.600;7.310;2022-07-23T07:01:13;10.48;;;7.28;;
14052;SDS011;7101;51.600;7.310;2022-07-23T07:03:40;9.35;;;7.30;;
14052;SDS011;7101;51.600;7.310;2022-07-23T07:06:08;11.20;;;7.47;;
14052;SDS011;7101;51.600;7.310;2022-07-23T07:08:35;14.18;;;6.85;;
14052;SDS011;7101;51.600;7.310;2022-07-23T07:11:02;10.10;;;7.07;;
14052;SDS011;7101;51.600;7.310;2022-07-23T07:13:29;7.25;;;6.50;;
14052;SDS011;7101;51.600;7.310;2022-07-23T07:15:56;9.73;;;7.20;;
14052;SDS011;7101;51.600;7.310;2022-07-23T07:18:23;10.10;;;7.18;;
14052;SDS011;7101;51.600;7.310;2022-07-23T07:20:49;11.93;;;7.43;;
14052;SDS011;7101;51.600;7.310;2022-07-23T07:23:17;8.00;;;6.95;;
14052;SDS011;7101;51.600;7.310;2022-07-23T07:25:45;8.82;;;7.22;;
14052;SDS011;7101;51.600;7.310;2022-07-23T07:28:12;7.65;;;6.60;;
14052;SDS011;7101;51.600;7.310;2022-07-23T07:30:39;9.23;;;6.70;;
14052;SDS011;7101;51.600;7.310;2022-07-23T07:33:06;10.88;;;6.63;;
14052;SDS011;7101;51.600;7.310;2022-07-23T07:35:32;7.95;;;6.65;;
14052;SDS011;7101;51.600;7.310;2022-07-23T07:37:59;9.50;;;6.50;;
14052;SDS011;7101;51.600;7.310;2022-07-23T07:40:28;7.93;;;5.65;;
14052;SDS011;7101;51.600;7.310;2022-07-23T07:42:54;9.45;;;6.07;;
14052;SDS011;7101;51.600;7.310;2022-07-23T07:45:22;6.43;;;5.72;;
14052;SDS011;7101;51.600;7.310;2022-07-23T07:47:50;7.50;;;4.85;;
14052;SDS011;7101;51.600;7.310;2022-07-23T07:50:17;11.10;;;5.43;;
14052;SDS011;7101;51.600;7.310;2022-07-23T07:52:44;8.75;;;5.50;;
14052;SDS011;7101;51.600;7.310;2022-07-23T07:55:11;6.60;;;4.88;;
14052;SDS011;7101;51.600;7.310;2022-07-23T07:57:39;7.43;;;4.65;;
14052;SDS011;7101;51.600;7.310;2022-07-23T08:00:07;6.40;;;4.85;;
14052;SDS011;7101;51.600;7.310;2022-07-23T08:02:42;5.85;;;4.53;;
14052;SDS011;7101;51.600;7.310;2022-07-23T08:05:09;6.28;;;4.00;;
14052;SDS011;7101;51.600;7.310;2022-07-23T08:07:36;7.30;;;4.32;;
14052;SDS011;7101;51.600;7.310;2022-07-23T08:10:04;6.53;;;3.95;;
14052;SDS011;7101;51.600;7.310;2022-07-23T08:12:43;6.18;;;3.55;;
14052;SDS011;7101;51.600;7.310;2022-07-23T08:15:12;6.85;;;3.95;;
14052;SDS011;7101;51.600;7.310;2022-07-23T08:17:40;5.53;;;3.92;;
14052;SDS011;7101;51.600;7.310;2022-07-23T08:20:08;5.18;;;3.90;;
14052;SDS011;7101;51.600;7.310;2022-07-23T08:22:47;5.43;;;2.90;;
14052;SDS011;7101;51.600;7.310;2022-07-23T08:25:15;5.82;;;3.65;;
14052;SDS011;7101;51.600;7.310;2022-07-23T08:27:47;5.60;;;3.17;;
14052;SDS011;7101;51.600;7.310;2022-07-23T08:30:14;5.38;;;3.00;;
14052;SDS011;7101;51.600;7.310;2022-07-23T08:32:49;4.07;;;3.17;;
14052;SDS011;7101;51.600;7.310;2022-07-23T08:35:17;4.95;;;3.25;;
14052;SDS011;7101;51.600;7.310;2022-07-23T08:37:44;4.43;;;2.90;;
14052;SDS011;7101;51.600;7.310;2022-07-23T08:40:11;4.90;;;3.13;;
14052;SDS011;7101;51.600;7.310;2022-07-23T08:42:39;4.72;;;3.50;;
14052;SDS011;7101;51.600;7.310;2022-07-23T08:45:08;4.82;;;3.47;;
14052;SDS011;7101;51.600;7.310;2022-07-23T08:47:35;5.13;;;3.65;;
14052;SDS011;7101;51.600;7.310;2022-07-23T08:50:03;3.75;;;2.90;;
14052;SDS011;7101;51.600;7.310;2022-07-23T08:52:33;4.30;;;2.67;;
14052;SDS011;7101;51.600;7.310;2022-07-23T08:55:00;6.45;;;3.05;;
14052;SDS011;7101;51.600;7.310;2022-07-23T08:57:27;5.28;;;2.70;;
14052;SDS011;7101;51.600;7.310;2022-07-23T08:59:54;4.65;;;2.90;;
14052;SDS011;7101;51.600;7.310;2022-07-23T09:02:23;3.45;;;2.70;;
14052;SDS011;7101;51.600;7.310;2022-07-23T09:04:50;5.22;;;3.13;;
14052;SDS011;7101;51.600;7.310;2022-07-23T09:07:17;7.03;;;3.38;;
14052;SDS011;7101;51.600;7.310;2022-07-23T09:09:44;4.47;;;3.30;;
14052;SDS011;7101;51.600;7.310;2022-07-23T09:12:11;5.53;;;4.07;;
14052;SDS011;7101;51.600;7.310;2022-07-23T09:14:39;5.18;;;3.78;;
14052;SDS011;7101;51.600;7.310;2022-07-23T09:17:10;5.15;;;4.60;;
14052;SDS011;7101;51.600;7.310;2022-07-23T09:19:39;8.02;;;4.40;;
14052;SDS011;7101;51.600;7.310;2022-07-23T09:22:17;4.50;;;3.60;;
14052;SDS011;7101;51.600;7.310;2022-07-23T09:25:05;3.85;;;2.97;;
14052;SDS011;7101;51.600;7.310;2022-07-23T09:27:48;3.95;;;2.70;;
14052;SDS011;7101;51.600;7.310;2022-07-23T09:30:17;4.05;;;3.42;;
14052;SDS011;7101;51.600;7.310;2022-07-23T09:32:44;6.95;;;3.20;;
14052;SDS011;7101;51.600;7.310;2022-07-23T09:35:44;4.40;;;2.60;;
14052;SDS011;7101;51.600;7.310;2022-07-23T09:38:12;4.10;;;3.20;;
14052;SDS011;7101;51.600;7.310;2022-07-23T09:40:39;3.28;;;2.70;;
14052;SDS011;7101;51.600;7.310;2022-07-23T09:43:06;7.70;;;3.42;;
14052;SDS011;7101;51.600;7.310;2022-07-23T09:45:33;5.38;;;3.50;;
14052;SDS011;7101;51.600;7.310;2022-07-23T09:48:10;4.82;;;3.30;;
14052;SDS011;7101;51.600;7.310;2022-07-23T09:50:38;4.30;;;3.78;;
14052;SDS011;7101;51.600;7.310;2022-07-23T09:53:07;6.57;;;3.47;;
14052;SDS011;7101;51.600;7.310;2022-07-23T09:55:34;4.20;;;3.05;;
14052;SDS011;7101;51.600;7.310;2022-07-23T09:58:03;7.75;;;2.72;;
14052;SDS011;7101;51.600;7.310;2022-07-23T10:00:31;2.72;;;2.40;;
14052;SDS011;7101;51.600;7.310;2022-07-23T10:02:59;4.05;;;2.67;;
14052;SDS011;7101;51.600;7.310;2022-07-23T10:05:26;6.68;;;2.67;;
14052;SDS011;7101;51.600;7.310;2022-07-23T10:07:54;6.07;;;2.70;;
14052;SDS011;7101;51.600;7.310;2022-07-23T10:10:23;4.03;;;2.92;;
14052;SDS011;7101;51.600;7.310;2022-07-23T10:12:53;11.38;;;3.72;;
14052;SDS011;7101;51.600;7.310;2022-07-23T10:15:37;8.45;;;2.25;;
14052;SDS011;7101;51.600;7.310;2022-07-23T10:18:06;6.03;;;2.80;;
14052;SDS011;7101;51.600;7.310;2022-07-23T10:20:33;4.72;;;2.65;;
14052;SDS011;7101;51.600;7.310;2022-07-23T10:23:02;3.85;;;2.90;;
14052;SDS011;7101;51.600;7.310;2022-07-23T10:25:39;5.68;;;3.00;;
14052;SDS011;7101;51.600;7.310;2022-07-23T10:28:15;3.05;;;2.60;;
14052;SDS011;7101;51.600;7.310;2022-07-23T10:30:57;5.97;;;2.53;;
14052;SDS011;7101;51.600;7.310;2022-07-23T10:33:33;5.05;;;2.80;;
14052;SDS011;7101;51.600;7.310;2022-07-23T10:36:09;3.70;;;2.70;;
14052;SDS011;7101;51.600;7.310;2022-07-23T10:38:47;3.58;;;2.60;;
14052;SDS011;7101;51.600;7.310;2022-07-23T10:41:31;3.70;;;2.70;;
14052;SDS011;7101;51.600;7.310;2022-07-23T10:44:05;4.28;;;2.80;;
14052;SDS011;7101;51.600;7.310;2022-07-23T10:46:36;3.70;;;2.70;;
14052;SDS011;7101;51.600;7.310;2022-07-23T10:49:25;3.60;;;2.88;;
14052;SDS011;7101;51.600;7.310;2022-07-23T10:54:44;4.15;;;2.80;;
14052;SDS011;7101;51.600;7.310;2022-07-23T10:57:13;5.95;;;2.88;;
14052;SDS011;7101;51.600;7.310;2022-07-23T11:02:43;3.08;;;2.40;;
14052;SDS011;7101;51.600;7.310;2022-07-23T11:05:12;5.82;;;2.60;;
14052;SDS011;7101;51.600;7.310;2022-07-23T11:10:42;5.90;;;2.83;;
14052;SDS011;7101;51.600;7.310;2022-07-23T11:13:28;4.28;;;2.63;;
14052;SDS011;7101;51.600;7.310;2022-07-23T11:16:12;2.92;;;1.92;;
14052;SDS011;7101;51.600;7.310;2022-07-23T11:21:41;3.40;;;1.65;;
14052;SDS011;7101;51.600;7.310;2022-07-23T11:24:09;2.97;;;2.00;;
14052;SDS011;7101;51.600;7.310;2022-07-23T11:26:48;3.42;;;1.90;;
14052;SDS011;7101;51.600;7.310;2022-07-23T11:32:20;4.85;;;2.40;;
14052;SDS011;7101;51.600;7.310;2022-07-23T11:34:57;4.03;;;2.08;;
14052;SDS011;7101;51.600;7.310;2022-07-23T11:37:34;2.95;;;1.80;;
14052;SDS011;7101;51.600;7.310;2022-07-23T11:40:04;3.00;;;1.95;;
14052;SDS011;7101;51.600;7.310;2022-07-23T11:42:34;3.60;;;1.70;;
14052;SDS011;7101;51.600;7.310;2022-07-23T11:45:04;12.77;;;11.48;;
14052;SDS011;7101;51.600;7.310;2022-07-23T11:47:32;2.50;;;1.90;;
14052;SDS011;7101;51.600;7.310;2022-07-23T11:50:00;3.25;;;1.90;;
14052;SDS011;7101;51.600;7.310;2022-07-23T11:52:29;4.63;;;1.73;;
14052;SDS011;7101;51.600;7.310;2022-07-23T11:54:57;2.97;;;1.90;;
14052;SDS011;7101;51.600;7.310;2022-07-23T11:57:26;3.00;;;1.73;;
14052;SDS011;7101;51.600;7.310;2022-07-23T11:59:55;2.67;;;1.50;;
14052;SDS011;7101;51.600;7.310;2022-07-23T12:02:25;2.45;;;1.70;;
14052;SDS011;7101;51.600;7.310;2022-07-23T12:04:52;2.90;;;1.70;;
14052;SDS011;7101;51.600;7.310;2022-07-23T12:07:26;3.22;;;1.95;;
14052;SDS011;7101;51.600;7.310;2022-07-23T12:09:56;2.92;;;1.60;;
14052;SDS011;7101;51.600;7.310;2022-07-23T12:12:24;3.92;;;1.73;;
14052;SDS011;7101;51.600;7.310;2022-07-23T12:14:52;1.75;;;1.55;;
14052;SDS011;7101;51.600;7.310;2022-07-23T12:17:21;2.25;;;1.58;;
14052;SDS011;7101;51.600;7.310;2022-07-23T12:19:56;3.13;;;2.10;;
14052;SDS011;7101;51.600;7.310;2022-07-23T12:22:24;2.00;;;1.60;;
14052;SDS011;7101;51.600;7.310;2022-07-23T12:24:56;3.05;;;1.80;;
14052;SDS011;7101;51.600;7.310;2022-07-23T12:27:25;2.28;;;1.58;;
14052;SDS011;7101;51.600;7.310;2022-07-23T12:29:53;1.65;;;1.55;;
14052;SDS011;7101;51.600;7.310;2022-07-23T12:32:20;6.90;;;1.73;;
14052;SDS011;7101;51.600;7.310;2022-07-23T12:34:51;3.67;;;1.45;;
14052;SDS011;7101;51.600;7.310;2022-07-23T12:37:29;2.38;;;1.40;;
14052;SDS011;7101;51.600;7.310;2022-07-23T12:39:57;2.33;;;1.77;;
14052;SDS011;7101;51.600;7.310;2022-07-23T12:42:24;3.28;;;1.60;;
14052;SDS011;7101;51.600;7.310;2022-07-23T12:45:07;2.15;;;1.63;;
14052;SDS011;7101;51.600;7.310;2022-07-23T12:47:52;2.15;;;1.50;;
14052;SDS011;7101;51.600;7.310;2022-07-23T12:50:33;4.15;;;1.98;;
14052;SDS011;7101;51.600;7.310;2022-07-23T12:53:03;2.17;;;1.60;;
14052;SDS011;7101;51.600;7.310;2022-07-23T12:55:30;2.22;;;1.60;;
14052;SDS011;7101;51.600;7.310;2022-07-23T12:58:02;4.00;;;1.85;;
14052;SDS011;7101;51.600;7.310;2022-07-23T13:00:31;1.70;;;1.52;;
14052;SDS011;7101;51.600;7.310;2022-07-23T13:02:58;2.17;;;1.63;;
14052;SDS011;7101;51.600;7.310;2022-07-23T13:05:24;3.05;;;2.10;;
14052;SDS011;7101;51.600;7.310;2022-07-23T13:07:53;3.75;;;1.92;;
14052;SDS011;7101;51.600;7.310;2022-07-23T13:10:20;5.55;;;1.73;;
14052;SDS011;7101;51.600;7.310;2022-07-23T13:12:47;2.78;;;1.70;;
14052;SDS011;7101;51.600;7.310;2022-07-23T13:15:14;2.50;;;1.60;;
14052;SDS011;7101;51.600;7.310;2022-07-23T13:17:41;2.33;;;1.60;;
14052;SDS011;7101;51.600;7.310;2022-07-23T13:20:10;3.90;;;1.67;;
14052;SDS011;7101;51.600;7.310;2022-07-23T13:22:37;4.47;;;1.90;;
14052;SDS011;7101;51.600;7.310;2022-07-23T13:25:06;2.70;;;1.70;;
14052;SDS011;7101;51.600;7.310;2022-07-23T13:27:33;4.32;;;2.03;;
14052;SDS011;7101;51.600;7.310;2022-07-23T13:30:00;2.13;;;1.48;;
14052;SDS011;7101;51.600;7.310;2022-07-23T13:32:27;1.70;;;1.60;;
14052;SDS011;7101;51.600;7.310;2022-07-23T13:34:54;1.58;;;1.48;;
14052;SDS011;7101;51.600;7.310;2022-07-23T13:37:21;4.47;;;1.50;;
14052;SDS011;7101;51.600;7.310;2022-07-23T13:39:48;2.05;;;1.70;;
14052;SDS011;7101;51.600;7.310;2022-07-23T13:42:16;2.50;;;1.50;;
14052;SDS011;7101;51.600;7.310;2022-07-23T13:44:43;4.45;;;1.60;;
14052;SDS011;7101;51.600;7.310;2022-07-23T13:47:10;4.43;;;2.10;;
14052;SDS011;7101;51.600;7.310;2022-07-23T13:49:37;2.35;;;1.77;;
14052;SDS011;7101;51.600;7.310;2022-07-23T13:52:04;2.50;;;1.63;;
14052;SDS011;7101;51.600;7.310;2022-07-23T13:54:31;3.13;;;1.60;;
14052;SDS011;7101;51.600;7.310;2022-07-23T13:56:58;2.83;;;1.90;;
14052;SDS011;7101;51.600;7.310;2022-07-23T13:59:26;2.03;;;1.50;;
14052;SDS011;7101;51.600;7.310;2022-07-23T14:01:53;3.05;;;2.00;;
14052;SDS011;7101;51.600;7.310;2022-07-23T14:04:20;3.03;;;1.77;;
14052;SDS011;7101;51.600;7.310;2022-07-23T14:06:47;4.00;;;1.80;;
14052;SDS011;7101;51.600;7.310;2022-07-23T14:09:14;3.45;;;1.88;;
14052;SDS011;7101;51.600;7.310;2022-07-23T14:11:40;2.60;;;1.90;;
14052;SDS011;7101;51.600;7.310;2022-07-23T14:14:07;2.55;;;1.67;;
14052;SDS011;7101;51.600;7.310;2022-07-23T14:16:36;2.88;;;1.92;;
14052;SDS011;7101;51.600;7.310;2022-07-23T14:19:03;2.80;;;1.85;;
14052;SDS011;7101;51.600;7.310;2022-07-23T14:21:29;5.07;;;2.10;;
14052;SDS011;7101;51.600;7.310;2022-07-23T14:23:56;2.08;;;1.88;;
14052;SDS011;7101;51.600;7.310;2022-07-23T14:26:23;3.85;;;1.98;;
14052;SDS011;7101;51.600;7.310;2022-07-23T14:28:50;2.20;;;1.90;;
14052;SDS011;7101;51.600;7.310;2022-07-23T14:31:17;2.97;;;1.70;;
14052;SDS011;7101;51.600;7.310;2022-07-23T14:33:45;5.40;;;1.90;;
14052;SDS011;7101;51.600;7.310;2022-07-23T14:36:12;2.38;;;1.92;;
14052;SDS011;7101;51.600;7.310;2022-07-23T14:38:39;2.75;;;1.95;;
14052;SDS011;7101;51.600;7.310;2022-07-23T14:41:06;3.15;;;2.17;;
14052;SDS011;7101;51.600;7.310;2022-07-23T14:43:33;3.67;;;2.08;;
14052;SDS011;7101;51.600;7.310;2022-07-23T14:45:59;4.60;;;1.90;;
14052;SDS011;7101;51.600;7.310;2022-07-23T14:48:26;3.08;;;2.05;;
14052;SDS011;7101;51.600;7.310;2022-07-23T14:50:54;3.45;;;1.70;;
14052;SDS011;7101;51.600;7.310;2022-07-23T14:53:21;4.43;;;2.10;;
14052;SDS011;7101;51.600;7.310;2022-07-23T14:55:48;2.80;;;1.90;;
14052;SDS011;7101;51.600;7.310;2022-07-23T14:58:15;3.00;;;1.83;;
14052;SDS011;7101;51.600;7.310;2022-07-23T15:00:43;2.15;;;1.90;;
14052;SDS011;7101;51.600;7.310;2022-07-23T15:03:10;3.40;;;1.98;;
14052;SDS011;7101;51.600;7.310;2022-07-23T15:05:37;3.30;;;1.75;;
14052;SDS011;7101;51.600;7.310;2022-07-23T15:08:05;3.15;;;2.10;;
14052;SDS011;7101;51.600;7.310;2022-07-23T15:10:32;2.65;;;2.00;;
14052;SDS011;7101;51.600;7.310;2022-07-23T15:12:59;3.58;;;2.10;;
14052;SDS011;7101;51.600;7.310;2022-07-23T15:15:25;3.22;;;1.75;;
14052;SDS011;7101;51.600;7.310;2022-07-23T15:17:52;2.97;;;2.40;;
14052;SDS011;7101;51.600;7.310;2022-07-23T15:20:19;3.38;;;1.98;;